createdAt,value
2022-10-19T00:01:15.387Z,13.23
2022-10-19T00:03:44.347Z,13.11
2022-10-19T00:06:25.903Z,13.07
2022-10-19T00:09:06.790Z,13.06
2022-10-19T00:11:37.382Z,13.01
2022-10-19T00:14:05.279Z,12.98
2022-10-19T00:16:36.348Z,12.86
2022-10-19T00:19:12.229Z,12.87
2022-10-19T00:21:40.127Z,12.82
2022-10-19T00:24:08.607Z,12.74
2022-10-19T00:26:36.393Z,12.62
2022-10-19T00:29:04.897Z,12.72
2022-10-19T00:31:32.560Z,12.67
2022-10-19T00:34:00.768Z,12.61
2022-10-19T00:36:37.659Z,12.67
2022-10-19T00:39:08.242Z,12.69
2022-10-19T00:41:36.261Z,12.66
2022-10-19T00:44:15.970Z,12.62
2022-10-19T00:46:50.676Z,12.58
2022-10-19T00:49:33.029Z,12.61
2022-10-19T00:52:17.211Z,12.59
2022-10-19T00:54:47.165Z,12.55
2022-10-19T00:57:15.305Z,12.58
2022-10-19T00:59:45.740Z,12.57
2022-10-19T01:02:14.051Z,12.59
2022-10-19T01:04:49.100Z,12.56
2022-10-19T01:07:16.852Z,12.60
2022-10-19T01:09:44.151Z,12.69
2022-10-19T01:12:51.299Z,12.70
2022-10-19T01:15:24.280Z,12.74
2022-10-19T01:18:19.623Z,12.79
2022-10-19T01:21:16.986Z,12.78
2022-10-19T01:24:05.600Z,12.76
2022-10-19T01:27:19.381Z,12.81
2022-10-19T01:30:03.397Z,12.76
2022-10-19T01:32:59.436Z,12.67
2022-10-19T01:36:09.960Z,12.69
2022-10-19T01:39:24.887Z,12.70
2022-10-19T01:42:06.313Z,12.65
2022-10-19T01:44:50.780Z,12.63
2022-10-19T01:47:31.375Z,12.60
2022-10-19T01:50:22.083Z,12.67
2022-10-19T01:52:51.709Z,12.59
2022-10-19T01:55:20.173Z,12.56
2022-10-19T01:57:54.801Z,12.65
2022-10-19T02:00:23.834Z,12.73
2022-10-19T02:02:54.603Z,12.78
2022-10-19T02:05:27.055Z,12.64
2022-10-19T02:08:00.804Z,12.68
2022-10-19T02:10:31.257Z,12.78
2022-10-19T02:12:59.518Z,12.61
2022-10-19T02:15:29.556Z,12.60
2022-10-19T02:17:59.853Z,12.57
2022-10-19T02:20:28.593Z,12.59
2022-10-19T02:22:56.532Z,12.68
2022-10-19T02:25:25.203Z,12.64
2022-10-19T02:27:53.177Z,12.67
2022-10-19T02:30:22.379Z,12.68
2022-10-19T02:32:51.056Z,12.75
2022-10-19T02:35:18.752Z,12.70
2022-10-19T02:37:46.228Z,12.75
2022-10-19T02:40:14.159Z,12.71
2022-10-19T02:43:04.505Z,12.74
2022-10-19T02:45:38.152Z,12.73
2022-10-19T02:48:11.743Z,12.72
2022-10-19T02:50:43.301Z,12.63
2022-10-19T02:53:10.653Z,12.67
2022-10-19T02:55:38.301Z,12.56
2022-10-19T02:58:05.536Z,12.59
2022-10-19T03:00:32.800Z,12.64
2022-10-19T03:03:00.544Z,12.58
2022-10-19T03:05:27.774Z,12.60
2022-10-19T03:07:54.989Z,12.56
2022-10-19T03:10:22.173Z,12.55
2022-10-19T03:12:49.438Z,12.56
2022-10-19T03:15:18.489Z,12.54
2022-10-19T03:17:45.868Z,12.55
2022-10-19T03:20:16.039Z,12.61
2022-10-19T03:22:43.256Z,12.55
2022-10-19T03:25:10.629Z,12.54
2022-10-19T03:27:37.741Z,12.48
2022-10-19T03:30:05.355Z,12.41
2022-10-19T03:32:32.622Z,12.51
2022-10-19T03:34:59.895Z,12.51
2022-10-19T03:37:27.206Z,12.49
2022-10-19T03:39:54.410Z,12.25
2022-10-19T03:42:21.582Z,12.18
2022-10-19T03:44:48.809Z,12.22
2022-10-19T03:47:16.046Z,12.26
2022-10-19T03:49:43.715Z,12.22
2022-10-19T03:52:11.132Z,12.32
2022-10-19T03:54:38.629Z,12.33
2022-10-19T03:57:05.753Z,12.29
2022-10-19T03:59:32.905Z,12.34
2022-10-19T04:02:00.136Z,12.30
2022-10-19T04:04:27.727Z,12.28
2022-10-19T04:06:54.962Z,12.18
2022-10-19T04:09:23.861Z,12.07
2022-10-19T04:11:51.591Z,12.07
2022-10-19T04:14:32.526Z,12.06
2022-10-19T04:17:03.895Z,12.10
2022-10-19T04:19:32.652Z,12.05
2022-10-19T04:21:59.891Z,11.97
2022-10-19T04:24:27.356Z,11.99
2022-10-19T04:26:56.391Z,11.99
2022-10-19T04:29:29.554Z,12.03
2022-10-19T04:31:57.790Z,12.01
2022-10-19T04:34:25.290Z,12.02
2022-10-19T04:36:53.937Z,12.09
2022-10-19T04:39:21.218Z,12.10
2022-10-19T04:41:48.348Z,12.10
2022-10-19T04:44:15.813Z,12.15
2022-10-19T04:46:43.041Z,12.14
2022-10-19T04:49:10.423Z,11.97
2022-10-19T04:51:37.731Z,11.87
2022-10-19T04:54:06.129Z,11.98
2022-10-19T04:56:33.543Z,11.98
2022-10-19T04:59:01.570Z,11.93
2022-10-19T05:01:31.091Z,11.97
2022-10-19T05:04:02.092Z,12.01
2022-10-19T05:06:31.513Z,11.94
2022-10-19T05:08:59.880Z,11.84
2022-10-19T05:11:27.577Z,11.72
2022-10-19T05:13:56.708Z,11.60
2022-10-19T05:16:24.533Z,11.49
2022-10-19T05:18:59.007Z,11.35
2022-10-19T05:21:28.962Z,11.43
2022-10-19T05:23:58.039Z,11.34
2022-10-19T05:26:27.445Z,11.32
2022-10-19T05:28:57.964Z,11.43
2022-10-19T05:31:31.571Z,11.56
2022-10-19T05:34:00.134Z,11.42
2022-10-19T05:36:34.672Z,11.39
2022-10-19T05:39:06.756Z,11.39
2022-10-19T05:41:34.917Z,11.54
2022-10-19T05:44:04.587Z,11.60
2022-10-19T05:46:33.751Z,11.55
2022-10-19T05:49:01.278Z,11.61
2022-10-19T05:51:29.109Z,11.94
2022-10-19T05:53:57.524Z,12.41
2022-10-19T05:56:28.214Z,12.86
2022-10-19T05:59:05.888Z,12.85
2022-10-19T06:01:34.181Z,12.67
2022-10-19T06:04:02.929Z,12.64
2022-10-19T06:06:31.824Z,12.54
2022-10-19T06:09:00.348Z,12.51
2022-10-19T06:11:31.183Z,12.51
2022-10-19T06:14:00.926Z,12.48
2022-10-19T06:16:29.841Z,12.33
2022-10-19T06:18:58.216Z,12.45
2022-10-19T06:21:29.888Z,12.45
2022-10-19T06:24:04.151Z,12.52
2022-10-19T06:26:33.358Z,12.57
2022-10-19T06:29:01.812Z,12.71
2022-10-19T06:31:32.209Z,12.84
2022-10-19T06:33:59.526Z,12.65
2022-10-19T06:36:30.674Z,12.78
2022-10-19T06:38:59.847Z,12.80
2022-10-19T06:41:28.095Z,12.67
2022-10-19T06:43:56.510Z,12.60
2022-10-19T06:46:26.444Z,12.56
2022-10-19T06:49:00.361Z,12.63
2022-10-19T06:51:30.267Z,12.85
2022-10-19T06:53:57.803Z,12.93
2022-10-19T06:56:26.757Z,13.24
2022-10-19T06:58:54.843Z,13.52
2022-10-19T07:01:23.049Z,13.86
2022-10-19T07:03:54.268Z,13.64
2022-10-19T07:06:22.512Z,13.21
2022-10-19T07:08:50.181Z,12.90
2022-10-19T07:11:20.538Z,12.95
2022-10-19T07:13:48.087Z,13.05
2022-10-19T07:16:20.591Z,13.02
2022-10-19T07:18:51.307Z,12.99
2022-10-19T07:21:19.484Z,13.09
2022-10-19T07:23:47.642Z,13.24
2022-10-19T07:26:23.905Z,13.28
2022-10-19T07:28:52.015Z,13.57
2022-10-19T07:31:22.092Z,13.71
2022-10-19T07:33:59.115Z,14.13
2022-10-19T07:36:28.125Z,14.37
2022-10-19T07:38:56.090Z,14.43
2022-10-19T07:41:25.920Z,14.17
2022-10-19T07:43:54.539Z,13.85
2022-10-19T07:46:25.995Z,13.62
2022-10-19T07:48:53.993Z,13.55
2022-10-19T07:51:22.243Z,13.64
2022-10-19T07:53:49.975Z,13.72
2022-10-19T07:56:21.386Z,13.68
2022-10-19T07:58:51.136Z,13.13
2022-10-19T08:01:31.504Z,12.80
2022-10-19T08:06:47.589Z,12.85
2022-10-19T08:09:33.436Z,13.42
2022-10-19T08:12:02.766Z,15.33
2022-10-19T08:14:30.100Z,17.86
2022-10-19T08:16:57.720Z,18.30
2022-10-19T08:19:24.936Z,18.09
2022-10-19T08:21:52.282Z,17.92
2022-10-19T08:24:20.849Z,16.90
2022-10-19T08:26:51.217Z,17.83
2022-10-19T08:29:21.436Z,18.19
2022-10-19T08:31:49.741Z,17.44
2022-10-19T08:34:17.104Z,16.39
2022-10-19T08:36:44.638Z,15.21
2022-10-19T08:39:13.198Z,14.90
2022-10-19T08:41:40.367Z,15.07
2022-10-19T08:44:27.685Z,15.47
2022-10-19T08:47:26.651Z,18.17
2022-10-19T08:49:55.160Z,17.52
2022-10-19T08:52:34.101Z,16.53
2022-10-19T08:55:19.617Z,16.33
2022-10-19T08:58:41.394Z,17.14
2022-10-19T09:01:37.643Z,16.44
2022-10-19T09:04:35.833Z,16.60
2022-10-19T09:07:23.618Z,16.38
2022-10-19T09:10:11.144Z,15.79
2022-10-19T09:12:58.910Z,15.53
2022-10-19T09:15:47.064Z,14.72
2022-10-19T09:18:29.787Z,14.31
2022-10-19T09:21:16.242Z,14.08
2022-10-19T09:24:16.216Z,14.40
2022-10-19T09:26:58.628Z,15.56
2022-10-19T09:29:42.251Z,15.04
2022-10-19T09:32:23.741Z,14.24
2022-10-19T09:35:06.492Z,13.59
2022-10-19T09:37:43.195Z,13.51
2022-10-19T09:40:20.223Z,13.56
2022-10-19T09:42:51.348Z,13.52
2022-10-19T09:45:23.911Z,13.72
2022-10-19T09:47:51.206Z,14.00
2022-10-19T09:50:27.454Z,14.27
2022-10-19T09:53:05.288Z,15.40
2022-10-19T09:55:47.116Z,15.00
2022-10-19T09:58:14.251Z,14.82
2022-10-19T10:00:46.427Z,16.52
2022-10-19T10:03:36.610Z,16.62
2022-10-19T10:06:09.095Z,16.59
2022-10-19T10:08:40.185Z,17.26
2022-10-19T10:11:16.265Z,18.46
2022-10-19T10:13:49.636Z,18.71
2022-10-19T10:16:20.603Z,18.39
2022-10-19T10:19:15.799Z,19.25
2022-10-19T10:21:55.800Z,17.67
2022-10-19T10:24:26.645Z,17.39
2022-10-19T10:26:58.504Z,17.47
2022-10-19T10:29:39.105Z,16.76
2022-10-19T10:32:19.754Z,16.74
2022-10-19T10:35:04.005Z,16.29
2022-10-19T10:37:37.260Z,16.43
2022-10-19T10:40:06.602Z,16.64
2022-10-19T10:42:42.787Z,16.71
2022-10-19T10:45:34.061Z,16.85
2022-10-19T10:48:28.417Z,16.18
2022-10-19T10:50:57.823Z,15.65
2022-10-19T10:53:44.059Z,15.05
2022-10-19T10:56:27.492Z,14.27
2022-10-19T10:59:05.785Z,14.00
2022-10-19T11:01:44.885Z,13.82
2022-10-19T11:04:20.749Z,13.88
2022-10-19T11:07:05.258Z,13.63
2022-10-19T11:09:42.681Z,13.53
2022-10-19T11:12:19.246Z,13.71
2022-10-19T11:14:51.384Z,14.24
2022-10-19T11:17:33.060Z,15.13
2022-10-19T11:20:01.010Z,18.45
2022-10-19T11:22:44.385Z,18.57
2022-10-19T11:25:59.937Z,17.11
2022-10-19T11:29:17.988Z,15.81
2022-10-19T11:31:54.027Z,14.72
2022-10-19T11:34:48.812Z,14.29
2022-10-19T11:38:19.439Z,14.13
2022-10-19T11:41:43.790Z,14.24
2022-10-19T11:44:38.628Z,14.09
2022-10-19T11:47:36.613Z,14.16
2022-10-19T11:50:16.873Z,14.08
2022-10-19T11:53:40.120Z,14.25
2022-10-19T11:57:11.352Z,14.36
2022-10-19T12:00:03.672Z,14.55
2022-10-19T12:03:03.399Z,14.44
2022-10-19T12:06:03.477Z,14.17
2022-10-19T12:08:51.156Z,14.45
2022-10-19T12:12:07.408Z,14.49
2022-10-19T12:14:42.404Z,14.49
2022-10-19T12:17:15.892Z,14.34
2022-10-19T12:19:49.112Z,14.16
2022-10-19T12:22:26.935Z,14.35
2022-10-19T12:24:58.495Z,14.27
2022-10-19T12:27:33.327Z,14.04
2022-10-19T12:30:17.010Z,13.95
2022-10-19T12:33:02.016Z,13.99
2022-10-19T12:36:13.762Z,14.04
2022-10-19T12:38:49.449Z,14.09
2022-10-19T12:41:56.510Z,14.05
2022-10-19T12:45:05.698Z,13.96
2022-10-19T12:47:33.612Z,14.17
2022-10-19T12:50:01.272Z,14.18
2022-10-19T12:52:49.017Z,14.20
2022-10-19T12:55:16.067Z,14.17
2022-10-19T12:57:56.115Z,14.45
2022-10-19T13:00:30.379Z,14.42
2022-10-19T13:03:05.759Z,14.56
2022-10-19T13:05:35.231Z,14.39
2022-10-19T13:08:06.964Z,14.16
2022-10-19T13:10:36.782Z,14.06
2022-10-19T13:13:04.744Z,13.66
2022-10-19T13:15:37.697Z,13.40
2022-10-19T13:18:14.439Z,13.32
2022-10-19T13:20:52.967Z,13.16
2022-10-19T13:23:29.019Z,13.15
2022-10-19T13:26:33.573Z,13.38
2022-10-19T13:29:01.765Z,13.50
2022-10-19T13:31:33.095Z,13.56
2022-10-19T13:34:00.527Z,13.34
2022-10-19T13:36:27.927Z,13.15
2022-10-19T13:39:03.040Z,13.22
2022-10-19T13:41:39.356Z,13.19
2022-10-19T13:44:15.341Z,13.13
2022-10-19T13:46:45.092Z,13.28
2022-10-19T13:49:56.260Z,13.36
2022-10-19T13:53:03.247Z,13.27
2022-10-19T13:55:51.713Z,13.40
2022-10-19T13:58:42.904Z,13.26
2022-10-19T14:01:48.199Z,12.96
2022-10-19T14:04:51.375Z,12.83
2022-10-19T14:07:32.427Z,12.61
2022-10-19T14:10:08.428Z,12.65
2022-10-19T14:12:39.729Z,12.71
2022-10-19T14:15:28.044Z,12.64
2022-10-19T14:17:56.778Z,12.69
2022-10-19T14:20:37.135Z,12.65
2022-10-19T14:23:40.278Z,12.39
2022-10-19T14:26:24.169Z,12.34
2022-10-19T14:28:57.468Z,12.19
2022-10-19T14:31:33.940Z,12.15
2022-10-19T14:34:07.665Z,12.14
2022-10-19T14:36:44.243Z,12.16
2022-10-19T14:40:08.714Z,12.12
2022-10-19T14:42:45.709Z,12.09
2022-10-19T14:45:27.419Z,11.82
2022-10-19T14:48:18.324Z,11.80
2022-10-19T14:50:55.532Z,11.78
2022-10-19T14:53:39.926Z,11.71
2022-10-19T14:56:23.405Z,11.75
2022-10-19T14:59:14.257Z,11.82
2022-10-19T15:01:48.612Z,11.77
2022-10-19T15:04:29.125Z,11.56
2022-10-19T15:06:57.224Z,11.64
2022-10-19T15:09:37.555Z,11.69
2022-10-19T15:12:19.512Z,11.69
2022-10-19T15:14:48.775Z,11.60
2022-10-19T15:17:31.664Z,11.54
2022-10-19T15:20:01.588Z,11.58
2022-10-19T15:22:32.378Z,11.43
2022-10-19T15:25:01.969Z,11.41
2022-10-19T15:27:33.760Z,11.42
2022-10-19T15:30:28.137Z,11.38
2022-10-19T15:33:14.248Z,11.30
2022-10-19T15:35:44.955Z,11.23
2022-10-19T15:38:25.900Z,11.30
2022-10-19T15:41:02.511Z,11.22
2022-10-19T15:43:35.919Z,11.20
2022-10-19T15:46:26.394Z,11.22
2022-10-19T15:48:56.427Z,11.18
2022-10-19T15:51:23.948Z,11.11
2022-10-19T15:54:10.080Z,11.12
2022-10-19T15:56:40.349Z,11.17
2022-10-19T15:59:20.037Z,11.09
2022-10-19T16:01:53.681Z,10.97
2022-10-19T16:04:22.360Z,11.03
2022-10-19T16:06:49.649Z,10.99
2022-10-19T16:09:20.812Z,10.94
2022-10-19T16:11:48.811Z,10.87
2022-10-19T16:16:44.768Z,10.63
2022-10-19T16:19:12.433Z,10.61
2022-10-19T16:21:40.228Z,10.46
2022-10-19T16:24:07.945Z,10.46
2022-10-19T16:26:35.606Z,10.35
2022-10-19T16:29:03.349Z,10.27
2022-10-19T16:31:31.710Z,10.17
2022-10-19T16:33:59.007Z,10.15
2022-10-19T16:36:26.338Z,10.11
2022-10-19T16:38:53.825Z,10.15
2022-10-19T16:41:21.262Z,10.13
2022-10-19T16:43:53.616Z,10.20
2022-10-19T16:46:23.021Z,10.19
2022-10-19T16:48:50.777Z,10.22
2022-10-19T16:51:42.036Z,10.05
2022-10-19T16:54:11.750Z,9.97
2022-10-19T16:56:45.953Z,9.96
2022-10-19T16:59:16.775Z,9.87
2022-10-19T17:01:45.147Z,9.73
2022-10-19T17:04:14.933Z,9.82
2022-10-19T17:06:42.625Z,9.78
2022-10-19T17:11:57.978Z,9.70
2022-10-19T17:14:25.376Z,9.70
2022-10-19T17:16:52.773Z,9.73
2022-10-19T17:19:20.087Z,9.74
2022-10-19T17:21:49.385Z,9.77
2022-10-19T17:24:22.048Z,9.75
2022-10-19T17:26:53.613Z,9.82
2022-10-19T17:29:22.677Z,9.78
2022-10-19T17:31:50.515Z,9.89
2022-10-19T17:34:18.482Z,9.86
2022-10-19T17:36:46.852Z,9.86
2022-10-19T17:39:18.299Z,9.93
2022-10-19T17:41:48.355Z,9.86
2022-10-19T17:44:17.107Z,9.91
2022-10-19T17:46:45.025Z,9.92
2022-10-19T17:49:13.545Z,9.91
2022-10-19T17:51:41.367Z,9.93
2022-10-19T17:54:13.450Z,9.84
2022-10-19T17:56:45.241Z,9.94
2022-10-19T17:59:14.228Z,9.92
2022-10-19T18:01:41.733Z,10.07
2022-10-19T18:04:09.094Z,10.06
2022-10-19T18:06:38.094Z,10.00
2022-10-19T18:09:09.315Z,10.09
2022-10-19T18:11:41.698Z,10.00
2022-10-19T18:14:12.584Z,9.94
2022-10-19T18:16:45.401Z,10.00
2022-10-19T18:19:15.976Z,9.95
2022-10-19T18:21:46.042Z,9.93
2022-10-19T18:24:19.522Z,9.99
2022-10-19T18:26:48.843Z,9.97
2022-10-19T18:29:21.055Z,9.87
2022-10-19T18:31:51.649Z,9.77
2022-10-19T18:34:22.130Z,9.78
2022-10-19T18:36:50.148Z,9.74
2022-10-19T18:39:18.832Z,9.76
2022-10-19T18:41:46.419Z,9.85
2022-10-19T18:44:14.206Z,9.81
2022-10-19T18:46:41.742Z,9.83
2022-10-19T18:49:11.440Z,9.93
2022-10-19T18:51:39.546Z,9.83
2022-10-19T18:54:06.859Z,9.82
2022-10-19T18:56:36.623Z,9.71
2022-10-19T18:59:05.394Z,9.80
2022-10-19T19:01:33.358Z,9.81
2022-10-19T19:04:09.135Z,9.86
2022-10-19T19:06:38.092Z,9.79
2022-10-19T19:09:10.256Z,9.74
2022-10-19T19:11:41.202Z,9.69
2022-10-19T19:14:18.321Z,9.54
2022-10-19T19:16:46.148Z,9.57
2022-10-19T19:19:16.346Z,9.46
2022-10-19T19:21:45.286Z,9.37
2022-10-19T19:24:17.384Z,9.26
2022-10-19T19:26:53.457Z,9.18
2022-10-19T19:29:21.930Z,9.15
2022-10-19T19:31:49.661Z,9.01
2022-10-19T19:34:18.209Z,9.01
2022-10-19T19:36:49.116Z,8.92
2022-10-19T19:39:20.515Z,8.92
2022-10-19T19:41:49.482Z,8.85
2022-10-19T19:44:17.394Z,8.99
2022-10-19T19:46:44.849Z,8.94
2022-10-19T19:49:12.615Z,9.04
2022-10-19T19:51:40.217Z,9.10
2022-10-19T19:54:07.866Z,9.10
2022-10-19T19:56:37.267Z,9.02
2022-10-19T19:59:04.619Z,8.98
2022-10-19T20:01:32.999Z,8.98
2022-10-19T20:06:37.486Z,8.98
2022-10-19T20:09:06.748Z,8.93
2022-10-19T20:11:36.207Z,8.94
2022-10-19T20:14:07.082Z,8.94
2022-10-19T20:16:34.465Z,8.87
2022-10-19T20:19:08.719Z,8.80
2022-10-19T20:21:36.705Z,8.68
2022-10-19T20:24:04.606Z,8.60
2022-10-19T20:26:32.234Z,8.59
2022-10-19T20:29:02.122Z,8.43
2022-10-19T20:31:31.491Z,8.37
2022-10-19T20:33:58.936Z,8.39
2022-10-19T20:36:27.087Z,8.32
2022-10-19T20:38:58.388Z,8.16
2022-10-19T20:41:28.443Z,8.07
2022-10-19T20:43:56.402Z,7.97
2022-10-19T20:46:27.736Z,7.89
2022-10-19T20:48:59.880Z,7.89
2022-10-19T20:51:33.564Z,7.73
2022-10-19T20:54:03.600Z,7.62
2022-10-19T20:56:33.916Z,7.57
2022-10-19T20:59:08.052Z,7.54
2022-10-19T21:01:37.875Z,7.59
2022-10-19T21:04:08.338Z,7.56
2022-10-19T21:06:41.491Z,7.51
2022-10-19T21:09:10.270Z,7.51
2022-10-19T21:11:41.059Z,7.48
2022-10-19T21:14:37.211Z,7.38
2022-10-19T21:17:04.361Z,7.27
2022-10-19T21:19:31.827Z,7.19
2022-10-19T21:22:02.545Z,7.14
2022-10-19T21:24:35.273Z,7.07
2022-10-19T21:27:07.574Z,7.07
2022-10-19T21:29:36.161Z,7.01
2022-10-19T21:32:04.089Z,7.03
2022-10-19T21:34:32.151Z,6.97
2022-10-19T21:37:00.281Z,6.95
2022-10-19T21:39:27.718Z,6.87
2022-10-19T21:41:55.276Z,6.76
2022-10-19T21:44:23.249Z,6.66
2022-10-19T21:46:51.136Z,6.71
2022-10-19T21:49:18.750Z,6.73
2022-10-19T21:51:53.930Z,6.74
2022-10-19T21:54:25.068Z,6.83
2022-10-19T21:56:53.448Z,6.94
2022-10-19T21:59:20.972Z,6.99
2022-10-19T22:01:48.532Z,6.99
2022-10-19T22:04:18.269Z,7.11
2022-10-19T22:06:45.642Z,7.26
2022-10-19T22:09:19.869Z,7.37
2022-10-19T22:11:47.685Z,7.43
2022-10-19T22:14:16.604Z,7.48
2022-10-19T22:16:44.953Z,7.57
2022-10-19T22:19:13.089Z,7.60
2022-10-19T22:21:40.850Z,7.59
2022-10-19T22:24:13.632Z,7.63
2022-10-19T22:26:45.565Z,7.68
2022-10-19T22:29:13.251Z,7.74
2022-10-19T22:31:40.748Z,7.67
2022-10-19T22:34:12.182Z,7.63
2022-10-19T22:36:39.449Z,7.69
2022-10-19T22:39:07.749Z,7.77
2022-10-19T22:41:35.074Z,7.91
2022-10-19T22:44:02.518Z,7.87
2022-10-19T22:46:29.863Z,7.96
2022-10-19T22:48:57.146Z,7.99
2022-10-19T22:51:24.375Z,8.01
2022-10-19T22:53:51.611Z,8.05
2022-10-19T22:56:18.803Z,7.97
2022-10-19T22:58:46.098Z,8.08
2022-10-19T23:01:15.894Z,8.09
2022-10-19T23:03:43.606Z,8.06
2022-10-19T23:06:14.069Z,8.10
2022-10-19T23:08:42.327Z,8.10
2022-10-19T23:11:09.600Z,8.07
2022-10-19T23:13:37.281Z,8.05
2022-10-19T23:16:04.971Z,7.93
2022-10-19T23:18:37.006Z,7.86
2022-10-19T23:21:08.075Z,7.81
2022-10-19T23:23:37.075Z,7.69
2022-10-19T23:26:11.248Z,7.62
2022-10-19T23:28:40.583Z,7.52
2022-10-19T23:31:10.386Z,7.56
2022-10-19T23:33:37.873Z,7.52
2022-10-19T23:36:22.618Z,7.47
2022-10-19T23:38:51.473Z,7.45
2022-10-19T23:41:20.226Z,7.44
2022-10-19T23:43:48.461Z,7.38
2022-10-19T23:46:16.218Z,7.42
2022-10-19T23:48:43.844Z,7.44
2022-10-19T23:51:15.865Z,7.38
2022-10-19T23:53:46.163Z,7.35
2022-10-19T23:56:23.450Z,7.28
2022-10-19T23:58:52.099Z,7.30
